Airfield :







YOU CAN JOIN US ON...

 
LOGIN :

Register | Disclaimer

   EN    FR    IT 

 









Legend :    VFR   Marginal VFR   IFR   Intensive IFR   Very Intensive IFR
Visi :
Ceiling :
>= 8 km
>= 3000ft
5 to 8 km
1000 to 3000 ft
1500m to 5 km
500 to 1000 ft
800 to 1500m
200 to 500 ft
< 800m
< 200 ft
Symbols :   Thunderstorms  Fog  Heavy snow  Heavy precipitations  Wind > 20 kt






- Airport Elevation : 160 ft
- IATA code : YYR


CYYR - Goose Bay

CURRENT METAR :
  • 221300Z 27005KT 15SM FEW240 04/M00 A3002 RMK CI1 SLP169

EXPIRED METARs :
  • 221200Z 28004KT 15SM FEW004 FEW150 FEW240 02/M00 A3001 RMK SF1AC1CI1 SLP165
  • 221119Z 25010KT 15SM FEW004 FEW150 FEW240 02/M01 A3000 RMK SF1AC1CI1 SLP161
  • 221100Z 25011KT 15SM FEW150 FEW240 01/M01 A3000 RMK AC1CI1 SLP160

TAF TAF CYYR
Valid from the 22 at 12:00 until the 23 at 12:00 UTC


221130Z 2212/2312 25012KT P6SM FEW150 SCT240
FM221400 26008KT P6SM SCT015
FM221900 06008KT P6SM SCT015 BKN100
FM230500 06008KT P6SM BKN015 OVC050 RMK NXT FCST BY 221800Z
CZQX FIR / North America



MET'MAP, your aeronautical weather chart ! - Copyright ORBIFLY December 2007 - Disclaimer

ORBIFLY MET'MAP TEAM :

Programming & Development : Alexandra Zaïnal
Concept & original design : Baudouin d'Aumeries
Assistance for programming : Marc-Olivier Méhu
Technical & hardware support : Manuel Goepfert

Contact : metmap@orbifly.com




SOURCES & CREDITS :

   NOAA